createdAt,value
2023-04-18T00:01:03.061Z,63.27
2023-04-18T00:03:30.282Z,63.71
2023-04-18T00:05:58.035Z,64.08
2023-04-18T00:08:24.736Z,64.64
2023-04-18T00:10:52.580Z,64.18
2023-04-18T00:13:19.425Z,64.44
2023-04-18T00:15:46.304Z,64.04
2023-04-18T00:18:15.885Z,63.75
2023-04-18T00:20:42.360Z,63.90
2023-04-18T00:23:09.364Z,64.52
2023-04-18T00:25:36.660Z,64.47
2023-04-18T00:28:04.949Z,64.22
2023-04-18T00:30:32.806Z,64.64
2023-04-18T00:32:59.510Z,64.56
2023-04-18T00:35:26.080Z,64.72
2023-04-18T00:37:52.566Z,64.63
2023-04-18T00:40:19.208Z,65.04
2023-04-18T00:42:45.650Z,65.18
2023-04-18T00:45:15.283Z,64.98
2023-04-18T00:47:42.057Z,65.26
2023-04-18T00:50:09.729Z,65.03
2023-04-18T00:52:37.017Z,64.87
2023-04-18T00:55:03.670Z,64.53
2023-04-18T00:57:31.385Z,64.62
2023-04-18T00:59:59.286Z,64.67
2023-04-18T01:02:30.693Z,64.89
2023-04-18T01:04:58.786Z,64.75
2023-04-18T01:07:25.449Z,65.40
2023-04-18T01:09:56.618Z,64.85
2023-04-18T01:12:24.786Z,64.61
2023-04-18T01:14:52.594Z,64.75
2023-04-18T01:17:19.248Z,64.64
2023-04-18T01:19:47.217Z,64.57
2023-04-18T01:22:14.620Z,64.24
2023-04-18T01:24:42.499Z,64.52
2023-04-18T01:27:11.444Z,64.19
2023-04-18T01:29:39.029Z,63.82
2023-04-18T01:32:06.132Z,64.15
2023-04-18T01:34:32.598Z,64.01
2023-04-18T01:36:59.385Z,63.66
2023-04-18T01:39:26.039Z,63.40
2023-04-18T01:41:54.323Z,63.90
2023-04-18T01:44:21.218Z,63.70
2023-04-18T01:46:47.749Z,63.65
2023-04-18T01:49:14.593Z,63.23
2023-04-18T01:51:43.090Z,63.58
2023-04-18T01:54:09.672Z,63.34
2023-04-18T01:56:36.451Z,63.59
2023-04-18T01:59:04.389Z,63.56
2023-04-18T02:01:30.918Z,63.27
2023-04-18T02:03:58.807Z,62.94
2023-04-18T02:06:26.196Z,63.48
2023-04-18T02:08:52.977Z,63.27
2023-04-18T02:11:19.574Z,62.79
2023-04-18T02:13:46.047Z,63.08
2023-04-18T02:16:14.393Z,63.09
2023-04-18T02:18:43.383Z,63.32
2023-04-18T02:21:11.210Z,63.52
2023-04-18T02:23:38.016Z,63.54
2023-04-18T02:26:04.740Z,63.67
2023-04-18T02:28:31.394Z,62.85
2023-04-18T02:31:00.032Z,63.43
2023-04-18T02:33:28.230Z,62.89
2023-04-18T02:35:54.701Z,63.44
2023-04-18T02:38:21.464Z,63.21
2023-04-18T02:40:51.737Z,63.55
2023-04-18T02:43:18.320Z,63.53
2023-04-18T02:45:44.875Z,62.97
2023-04-18T02:48:11.402Z,63.12
2023-04-18T02:50:39.789Z,62.79
2023-04-18T02:53:06.486Z,63.29
2023-04-18T02:55:46.998Z,63.23
2023-04-18T02:58:14.063Z,62.95
2023-04-18T03:01:12.959Z,63.23
2023-04-18T03:04:02.649Z,62.85
2023-04-18T03:06:40.522Z,63.18
2023-04-18T03:09:07.856Z,62.87
2023-04-18T03:11:37.484Z,62.90
2023-04-18T03:14:05.394Z,63.92
2023-04-18T03:16:41.963Z,63.91
2023-04-18T03:19:11.594Z,64.16
2023-04-18T03:21:39.770Z,64.34
2023-04-18T03:24:06.815Z,63.40
2023-04-18T03:26:34.579Z,63.98
2023-04-18T03:29:03.070Z,64.03
2023-04-18T03:31:29.721Z,63.57
2023-04-18T03:33:56.289Z,63.53
2023-04-18T03:36:25.351Z,64.09
2023-04-18T03:38:54.993Z,64.45
2023-04-18T03:41:21.637Z,64.41
2023-04-18T03:43:48.199Z,65.10
2023-04-18T03:46:15.581Z,64.96
2023-04-18T03:48:42.629Z,64.70
2023-04-18T03:51:11.811Z,64.25
2023-04-18T03:53:38.854Z,64.55
2023-04-18T03:56:07.119Z,64.62
2023-04-18T03:59:02.654Z,64.48
2023-04-18T04:01:30.609Z,64.28
2023-04-18T04:03:57.320Z,64.99
2023-04-18T04:06:24.299Z,64.49
2023-04-18T04:08:50.773Z,64.51
2023-04-18T04:11:23.268Z,64.30
2023-04-18T04:13:50.342Z,65.32
2023-04-18T04:16:21.370Z,65.52
2023-04-18T04:18:50.130Z,66.06
2023-04-18T04:21:20.604Z,65.80
2023-04-18T04:23:51.050Z,65.93
2023-04-18T04:26:34.424Z,66.27
2023-04-18T04:29:06.723Z,66.04
2023-04-18T04:31:34.257Z,65.53
2023-04-18T04:34:01.950Z,66.92
2023-04-18T04:36:28.682Z,66.99
2023-04-18T04:38:57.698Z,66.39
2023-04-18T04:41:33.721Z,66.25
2023-04-18T04:44:01.864Z,65.81
2023-04-18T04:46:31.327Z,65.33
2023-04-18T04:48:59.742Z,66.25
2023-04-18T04:51:28.059Z,66.95
2023-04-18T04:53:54.904Z,67.56
2023-04-18T04:56:22.996Z,67.94
2023-04-18T04:58:51.602Z,68.24
2023-04-18T05:01:23.162Z,68.09
2023-04-18T05:03:51.509Z,66.98
2023-04-18T05:06:20.671Z,67.47
2023-04-18T05:08:47.248Z,67.08
2023-04-18T05:11:13.760Z,67.86
2023-04-18T05:13:40.272Z,68.43
2023-04-18T05:16:08.179Z,69.22
2023-04-18T05:18:37.433Z,69.03
2023-04-18T05:21:04.219Z,69.32
2023-04-18T05:23:30.742Z,69.04
2023-04-18T05:25:57.219Z,69.81
2023-04-18T05:28:25.446Z,69.42
2023-04-18T05:30:52.184Z,70.12
2023-04-18T05:33:20.481Z,70.16
2023-04-18T05:35:47.207Z,69.85
2023-04-18T05:38:13.766Z,70.45
2023-04-18T05:40:40.439Z,70.91
2023-04-18T05:43:07.032Z,70.73
2023-04-18T05:45:33.515Z,70.68
2023-04-18T05:48:00.091Z,70.76
2023-04-18T05:50:28.006Z,69.99
2023-04-18T05:52:54.685Z,69.40
2023-04-18T05:55:21.227Z,70.04
2023-04-18T05:57:47.700Z,69.52
2023-04-18T06:00:14.887Z,70.11
2023-04-18T06:02:41.577Z,70.04
2023-04-18T06:05:09.305Z,70.42
2023-04-18T06:07:37.282Z,70.32
2023-04-18T06:10:05.641Z,69.60
2023-04-18T06:12:32.240Z,69.82
2023-04-18T06:14:59.062Z,69.09
2023-04-18T06:17:25.719Z,69.78
2023-04-18T06:19:52.529Z,69.78
2023-04-18T06:22:19.222Z,68.65
2023-04-18T06:24:47.109Z,69.26
2023-04-18T06:27:24.376Z,69.37
2023-04-18T06:29:56.940Z,70.33
2023-04-18T06:32:23.564Z,69.79
2023-04-18T06:34:50.440Z,70.44
2023-04-18T06:37:17.630Z,69.82
2023-04-18T06:39:44.184Z,70.28
2023-04-18T06:42:12.039Z,69.96
2023-04-18T06:44:44.408Z,69.87
2023-04-18T06:47:11.362Z,70.21
2023-04-18T06:49:38.393Z,70.28
2023-04-18T06:52:05.120Z,69.95
2023-04-18T06:54:31.646Z,70.18
2023-04-18T06:56:58.831Z,69.49
2023-04-18T06:59:26.747Z,69.36
2023-04-18T07:01:53.876Z,69.83
2023-04-18T07:04:20.704Z,70.01
2023-04-18T07:06:47.332Z,70.15
2023-04-18T07:09:13.972Z,69.48
2023-04-18T07:11:40.665Z,69.76
2023-04-18T07:14:07.460Z,69.46
2023-04-18T07:16:35.659Z,70.32
2023-04-18T07:19:02.214Z,69.61
2023-04-18T07:21:29.000Z,69.90
2023-04-18T07:23:55.483Z,70.06
2023-04-18T07:26:22.177Z,69.58
2023-04-18T07:28:49.122Z,68.94
2023-04-18T07:31:16.454Z,69.15
2023-04-18T07:33:44.743Z,69.79
2023-04-18T07:36:11.315Z,69.72
2023-04-18T07:38:38.035Z,69.41
2023-04-18T07:41:04.797Z,68.89
2023-04-18T07:43:31.442Z,68.77
2023-04-18T07:45:58.183Z,69.19
2023-04-18T07:48:25.513Z,69.16
2023-04-18T07:50:54.107Z,68.68
2023-04-18T07:53:20.820Z,67.90
2023-04-18T07:55:47.343Z,68.27
2023-04-18T07:58:14.058Z,68.36
2023-04-18T08:00:42.608Z,68.27
2023-04-18T08:03:13.175Z,68.06
2023-04-18T08:05:40.571Z,67.26
2023-04-18T08:08:09.236Z,67.98
2023-04-18T08:10:36.117Z,67.70
2023-04-18T08:13:03.221Z,68.08
2023-04-18T08:15:32.541Z,66.80
2023-04-18T08:18:00.570Z,67.66
2023-04-18T08:20:27.332Z,66.13
2023-04-18T08:23:06.178Z,65.27
2023-04-18T08:25:37.464Z,64.78
2023-04-18T08:28:04.336Z,64.04
2023-04-18T08:30:31.356Z,64.05
2023-04-18T08:32:58.027Z,63.05
2023-04-18T08:35:24.724Z,62.04
2023-04-18T08:37:51.195Z,62.11
2023-04-18T08:40:18.568Z,62.78
2023-04-18T08:42:46.904Z,62.60
2023-04-18T08:45:14.175Z,62.85
2023-04-18T08:47:41.229Z,61.65
2023-04-18T08:50:09.215Z,62.25
2023-04-18T08:52:36.393Z,61.20
2023-04-18T08:55:02.916Z,60.86
2023-04-18T08:57:31.019Z,61.77
2023-04-18T09:00:02.255Z,60.89
2023-04-18T09:02:35.290Z,62.31
2023-04-18T09:05:10.026Z,60.62
2023-04-18T09:07:36.489Z,59.68
2023-04-18T09:10:03.212Z,59.21
2023-04-18T09:12:29.860Z,58.84
2023-04-18T09:14:57.951Z,58.09
2023-04-18T09:17:33.834Z,58.53
2023-04-18T09:20:01.629Z,58.33
2023-04-18T09:22:46.064Z,58.26
2023-04-18T09:25:24.913Z,58.32
2023-04-18T09:27:51.960Z,58.56
2023-04-18T09:30:29.153Z,57.64
2023-04-18T09:32:59.927Z,57.15
2023-04-18T09:35:27.078Z,57.82
2023-04-18T09:37:53.935Z,56.91
2023-04-18T09:40:20.884Z,57.67
2023-04-18T09:42:48.144Z,57.02
2023-04-18T09:45:15.453Z,54.59
2023-04-18T09:47:42.083Z,53.92
2023-04-18T09:50:10.321Z,53.40
2023-04-18T09:52:38.163Z,53.98
2023-04-18T09:55:05.960Z,54.17
2023-04-18T09:57:34.256Z,54.27
2023-04-18T10:00:10.663Z,54.01
2023-04-18T10:02:43.346Z,53.69
2023-04-18T10:05:13.849Z,53.06
2023-04-18T10:07:41.816Z,51.23
2023-04-18T10:10:08.752Z,50.27
2023-04-18T10:12:36.146Z,51.22
2023-04-18T10:15:03.118Z,50.64
2023-04-18T10:17:29.887Z,51.78
2023-04-18T10:20:08.127Z,50.94
2023-04-18T10:22:36.565Z,50.81
2023-04-18T10:25:03.774Z,49.65
2023-04-18T10:27:49.232Z,50.88
2023-04-18T10:30:16.532Z,51.20
2023-04-18T10:32:43.373Z,51.19
2023-04-18T10:35:10.529Z,51.51
2023-04-18T10:37:48.757Z,52.38
2023-04-18T10:40:15.706Z,51.89
2023-04-18T10:42:58.498Z,52.04
2023-04-18T10:45:26.621Z,52.69
2023-04-18T10:48:09.600Z,52.56
2023-04-18T10:50:58.424Z,52.91
2023-04-18T10:53:26.443Z,52.86
2023-04-18T10:55:55.084Z,53.56
2023-04-18T10:58:21.706Z,52.50
2023-04-18T11:00:49.961Z,51.69
2023-04-18T11:03:16.820Z,51.85
2023-04-18T11:13:56.095Z,51.63
2023-04-18T11:16:26.444Z,50.39
2023-04-18T11:18:54.325Z,49.89
2023-04-18T11:21:22.731Z,49.41
2023-04-18T11:44:18.979Z,49.82
2023-04-18T11:47:02.384Z,50.76
2023-04-18T11:52:30.984Z,49.96
2023-04-18T11:57:39.583Z,50.76
2023-04-18T12:00:10.644Z,48.34
2023-04-18T12:11:19.377Z,48.83
